<?xml version="1.0" encoding="UTF-8"?>
<gpx version="1.1" creator="GPSBabel - http://www.gpsbabel.org" xmlns="http://www.topografix.com/GPX/1/1" xmlns:xsi="http://www.w3.org/2001/XMLSchema-instance">
  <metadata>
    <time>2016-08-27T13:57:32.606Z</time>
    <bounds minlat="49.757638000" minlon="5.783744000" maxlat="49.991570000" maxlon="6.131959000"/>
  </metadata>
  <trk>
    <name>Grand tour de la Sûre 224Km (ARdennes Luxembourgeoise)</name>
    <cmt/>
    <trkseg>
      <trkpt lat="49.909773000" lon="5.935578000">
        <ele>0.000000</ele>
        <time>2016-08-27T15:57:32Z</time>
      </trkpt>
      <trkpt lat="49.909816000" lon="5.934205000">
        <ele>0.000000</ele>
        <time>2016-08-27T15:58:12Z</time>
      </trkpt>
      <trkpt lat="49.908099000" lon="5.933175000">
        <ele>0.000000</ele>
        <time>2016-08-27T15:58:52Z</time>
      </trkpt>
      <trkpt lat="49.906855000" lon="5.930600000">
        <ele>0.000000</ele>
        <time>2016-08-27T16:00:52Z</time>
      </trkpt>
      <trkpt lat="49.906855000" lon="5.927596000">
        <ele>0.000000</ele>
        <time>2016-08-27T16:01:32Z</time>
      </trkpt>
      <trkpt lat="49.908142000" lon="5.924678000">
        <ele>0.000000</ele>
        <time>2016-08-27T16:02:52Z</time>
      </trkpt>
      <trkpt lat="49.911318000" lon="5.922403000">
        <ele>0.000000</ele>
        <time>2016-08-27T16:04:52Z</time>
      </trkpt>
      <trkpt lat="49.911919000" lon="5.923433000">
        <ele>0.000000</ele>
        <time>2016-08-27T16:06:12Z</time>
      </trkpt>
      <trkpt lat="49.910159000" lon="5.929055000">
        <ele>0.000000</ele>
        <time>2016-08-27T16:08:52Z</time>
      </trkpt>
      <trkpt lat="49.910803000" lon="5.929742000">
        <ele>0.000000</ele>
        <time>2016-08-27T16:10:52Z</time>
      </trkpt>
      <trkpt lat="49.912004000" lon="5.926051000">
        <ele>0.000000</ele>
        <time>2016-08-27T16:12:52Z</time>
      </trkpt>
      <trkpt lat="49.916339000" lon="5.921416000">
        <ele>0.000000</ele>
        <time>2016-08-27T16:16:12Z</time>
      </trkpt>
      <trkpt lat="49.919515000" lon="5.922747000">
        <ele>0.000000</ele>
        <time>2016-08-27T16:19:32Z</time>
      </trkpt>
      <trkpt lat="49.920502000" lon="5.921202000">
        <ele>0.000000</ele>
        <time>2016-08-27T16:20:52Z</time>
      </trkpt>
      <trkpt lat="49.918356000" lon="5.907340000">
        <ele>0.000000</ele>
        <time>2016-08-27T16:24:12Z</time>
      </trkpt>
      <trkpt lat="49.921532000" lon="5.901461000">
        <ele>0.000000</ele>
        <time>2016-08-27T16:28:12Z</time>
      </trkpt>
      <trkpt lat="49.921875000" lon="5.908456000">
        <ele>0.000000</ele>
        <time>2016-08-27T16:30:12Z</time>
      </trkpt>
      <trkpt lat="49.923892000" lon="5.915966000">
        <ele>0.000000</ele>
        <time>2016-08-27T16:31:32Z</time>
      </trkpt>
      <trkpt lat="49.926682000" lon="5.918627000">
        <ele>0.000000</ele>
        <time>2016-08-27T16:34:12Z</time>
      </trkpt>
      <trkpt lat="49.932303000" lon="5.939870000">
        <ele>0.000000</ele>
        <time>2016-08-27T16:42:12Z</time>
      </trkpt>
      <trkpt lat="49.933977000" lon="5.941672000">
        <ele>0.000000</ele>
        <time>2016-08-27T16:43:32Z</time>
      </trkpt>
      <trkpt lat="49.936252000" lon="5.939698000">
        <ele>0.000000</ele>
        <time>2016-08-27T16:44:52Z</time>
      </trkpt>
      <trkpt lat="49.937925000" lon="5.933990000">
        <ele>0.000000</ele>
        <time>2016-08-27T16:48:12Z</time>
      </trkpt>
      <trkpt lat="49.939084000" lon="5.934420000">
        <ele>0.000000</ele>
        <time>2016-08-27T16:48:52Z</time>
      </trkpt>
      <trkpt lat="49.941359000" lon="5.932617000">
        <ele>0.000000</ele>
        <time>2016-08-27T16:50:52Z</time>
      </trkpt>
      <trkpt lat="49.945436000" lon="5.933518000">
        <ele>0.000000</ele>
        <time>2016-08-27T16:53:32Z</time>
      </trkpt>
      <trkpt lat="49.947839000" lon="5.930386000">
        <ele>0.000000</ele>
        <time>2016-08-27T16:56:12Z</time>
      </trkpt>
      <trkpt lat="49.950714000" lon="5.932188000">
        <ele>0.000000</ele>
        <time>2016-08-27T17:00:12Z</time>
      </trkpt>
      <trkpt lat="49.951100000" lon="5.930386000">
        <ele>0.000000</ele>
        <time>2016-08-27T17:02:12Z</time>
      </trkpt>
      <trkpt lat="49.954190000" lon="5.929527000">
        <ele>0.000000</ele>
        <time>2016-08-27T17:05:32Z</time>
      </trkpt>
      <trkpt lat="49.955521000" lon="5.931931000">
        <ele>0.000000</ele>
        <time>2016-08-27T17:06:52Z</time>
      </trkpt>
      <trkpt lat="49.953761000" lon="5.932875000">
        <ele>0.000000</ele>
        <time>2016-08-27T17:08:52Z</time>
      </trkpt>
      <trkpt lat="49.952302000" lon="5.937552000">
        <ele>0.000000</ele>
        <time>2016-08-27T17:10:12Z</time>
      </trkpt>
      <trkpt lat="49.949598000" lon="5.939612000">
        <ele>0.000000</ele>
        <time>2016-08-27T17:12:12Z</time>
      </trkpt>
      <trkpt lat="49.946980000" lon="5.944891000">
        <ele>0.000000</ele>
        <time>2016-08-27T17:13:32Z</time>
      </trkpt>
      <trkpt lat="49.948354000" lon="5.954118000">
        <ele>0.000000</ele>
        <time>2016-08-27T17:15:32Z</time>
      </trkpt>
      <trkpt lat="49.948311000" lon="5.960126000">
        <ele>0.000000</ele>
        <time>2016-08-27T17:16:12Z</time>
      </trkpt>
      <trkpt lat="49.946465000" lon="5.964804000">
        <ele>0.000000</ele>
        <time>2016-08-27T17:17:32Z</time>
      </trkpt>
      <trkpt lat="49.947710000" lon="5.977721000">
        <ele>0.000000</ele>
        <time>2016-08-27T17:20:52Z</time>
      </trkpt>
      <trkpt lat="49.947023000" lon="5.977592000">
        <ele>0.000000</ele>
        <time>2016-08-27T17:22:52Z</time>
      </trkpt>
      <trkpt lat="49.947581000" lon="5.991411000">
        <ele>0.000000</ele>
        <time>2016-08-27T17:26:12Z</time>
      </trkpt>
      <trkpt lat="49.947023000" lon="5.999951000">
        <ele>0.000000</ele>
        <time>2016-08-27T17:28:12Z</time>
      </trkpt>
      <trkpt lat="49.948826000" lon="6.012311000">
        <ele>0.000000</ele>
        <time>2016-08-27T17:31:32Z</time>
      </trkpt>
      <trkpt lat="49.950500000" lon="6.010637000">
        <ele>0.000000</ele>
        <time>2016-08-27T17:32:12Z</time>
      </trkpt>
      <trkpt lat="49.951701000" lon="6.011539000">
        <ele>0.000000</ele>
        <time>2016-08-27T17:33:32Z</time>
      </trkpt>
      <trkpt lat="49.951143000" lon="6.014371000">
        <ele>0.000000</ele>
        <time>2016-08-27T17:35:32Z</time>
      </trkpt>
      <trkpt lat="49.949641000" lon="6.014156000">
        <ele>0.000000</ele>
        <time>2016-08-27T17:38:12Z</time>
      </trkpt>
      <trkpt lat="49.950113000" lon="6.016302000">
        <ele>0.000000</ele>
        <time>2016-08-27T17:39:32Z</time>
      </trkpt>
      <trkpt lat="49.950371000" lon="6.014972000">
        <ele>0.000000</ele>
        <time>2016-08-27T17:40:12Z</time>
      </trkpt>
      <trkpt lat="49.951143000" lon="6.015530000">
        <ele>0.000000</ele>
        <time>2016-08-27T17:40:52Z</time>
      </trkpt>
      <trkpt lat="49.953461000" lon="6.012740000">
        <ele>0.000000</ele>
        <time>2016-08-27T17:42:12Z</time>
      </trkpt>
      <trkpt lat="49.954233000" lon="6.013255000">
        <ele>0.000000</ele>
        <time>2016-08-27T17:43:32Z</time>
      </trkpt>
      <trkpt lat="49.952517000" lon="6.014543000">
        <ele>0.000000</ele>
        <time>2016-08-27T17:45:32Z</time>
      </trkpt>
      <trkpt lat="49.954791000" lon="6.012611000">
        <ele>0.000000</ele>
        <time>2016-08-27T17:47:32Z</time>
      </trkpt>
      <trkpt lat="49.949856000" lon="6.006088000">
        <ele>0.000000</ele>
        <time>2016-08-27T17:49:32Z</time>
      </trkpt>
      <trkpt lat="49.951701000" lon="5.999351000">
        <ele>0.000000</ele>
        <time>2016-08-27T17:54:12Z</time>
      </trkpt>
      <trkpt lat="49.956422000" lon="5.996046000">
        <ele>0.000000</ele>
        <time>2016-08-27T17:56:52Z</time>
      </trkpt>
      <trkpt lat="49.957323000" lon="5.992484000">
        <ele>0.000000</ele>
        <time>2016-08-27T17:58:52Z</time>
      </trkpt>
      <trkpt lat="49.958825000" lon="5.990810000">
        <ele>0.000000</ele>
        <time>2016-08-27T18:00:52Z</time>
      </trkpt>
      <trkpt lat="49.955177000" lon="5.986948000">
        <ele>0.000000</ele>
        <time>2016-08-27T18:06:52Z</time>
      </trkpt>
      <trkpt lat="49.955993000" lon="5.986133000">
        <ele>0.000000</ele>
        <time>2016-08-27T18:07:32Z</time>
      </trkpt>
      <trkpt lat="49.954534000" lon="5.980554000">
        <ele>0.000000</ele>
        <time>2016-08-27T18:10:12Z</time>
      </trkpt>
      <trkpt lat="49.955306000" lon="5.980597000">
        <ele>0.000000</ele>
        <time>2016-08-27T18:12:12Z</time>
      </trkpt>
      <trkpt lat="49.957323000" lon="5.971928000">
        <ele>0.000000</ele>
        <time>2016-08-27T18:14:12Z</time>
      </trkpt>
      <trkpt lat="49.961700000" lon="5.969610000">
        <ele>0.000000</ele>
        <time>2016-08-27T18:16:52Z</time>
      </trkpt>
      <trkpt lat="49.961443000" lon="5.968237000">
        <ele>0.000000</ele>
        <time>2016-08-27T18:18:12Z</time>
      </trkpt>
      <trkpt lat="49.963932000" lon="5.970941000">
        <ele>0.000000</ele>
        <time>2016-08-27T18:21:32Z</time>
      </trkpt>
      <trkpt lat="49.961271000" lon="5.971756000">
        <ele>0.000000</ele>
        <time>2016-08-27T18:24:52Z</time>
      </trkpt>
      <trkpt lat="49.960842000" lon="5.975533000">
        <ele>0.000000</ele>
        <time>2016-08-27T18:26:52Z</time>
      </trkpt>
      <trkpt lat="49.962516000" lon="5.973258000">
        <ele>0.000000</ele>
        <time>2016-08-27T18:27:32Z</time>
      </trkpt>
      <trkpt lat="49.960155000" lon="5.980682000">
        <ele>0.000000</ele>
        <time>2016-08-27T18:31:32Z</time>
      </trkpt>
      <trkpt lat="49.966164000" lon="5.979953000">
        <ele>0.000000</ele>
        <time>2016-08-27T18:34:52Z</time>
      </trkpt>
      <trkpt lat="49.969811000" lon="5.984201000">
        <ele>0.000000</ele>
        <time>2016-08-27T18:36:52Z</time>
      </trkpt>
      <trkpt lat="49.971743000" lon="5.988235000">
        <ele>0.000000</ele>
        <time>2016-08-27T18:38:52Z</time>
      </trkpt>
      <trkpt lat="49.971099000" lon="5.994029000">
        <ele>0.000000</ele>
        <time>2016-08-27T18:40:12Z</time>
      </trkpt>
      <trkpt lat="49.961486000" lon="6.014328000">
        <ele>0.000000</ele>
        <time>2016-08-27T18:45:32Z</time>
      </trkpt>
      <trkpt lat="49.958997000" lon="6.014156000">
        <ele>0.000000</ele>
        <time>2016-08-27T18:47:32Z</time>
      </trkpt>
      <trkpt lat="49.957023000" lon="6.016431000">
        <ele>0.000000</ele>
        <time>2016-08-27T18:51:32Z</time>
      </trkpt>
      <trkpt lat="49.957280000" lon="6.017418000">
        <ele>0.000000</ele>
        <time>2016-08-27T18:52:52Z</time>
      </trkpt>
      <trkpt lat="49.955564000" lon="6.016688000">
        <ele>0.000000</ele>
        <time>2016-08-27T18:56:12Z</time>
      </trkpt>
      <trkpt lat="49.955349000" lon="6.017847000">
        <ele>0.000000</ele>
        <time>2016-08-27T18:57:32Z</time>
      </trkpt>
      <trkpt lat="49.955091000" lon="6.016645000">
        <ele>0.000000</ele>
        <time>2016-08-27T18:58:12Z</time>
      </trkpt>
      <trkpt lat="49.954877000" lon="6.017976000">
        <ele>0.000000</ele>
        <time>2016-08-27T18:58:52Z</time>
      </trkpt>
      <trkpt lat="49.954662000" lon="6.016817000">
        <ele>0.000000</ele>
        <time>2016-08-27T18:59:32Z</time>
      </trkpt>
      <trkpt lat="49.954748000" lon="6.020551000">
        <ele>0.000000</ele>
        <time>2016-08-27T19:00:52Z</time>
      </trkpt>
      <trkpt lat="49.953461000" lon="6.016603000">
        <ele>0.000000</ele>
        <time>2016-08-27T19:02:52Z</time>
      </trkpt>
      <trkpt lat="49.953761000" lon="6.020894000">
        <ele>0.000000</ele>
        <time>2016-08-27T19:06:12Z</time>
      </trkpt>
      <trkpt lat="49.952431000" lon="6.020551000">
        <ele>0.000000</ele>
        <time>2016-08-27T19:07:32Z</time>
      </trkpt>
      <trkpt lat="49.953032000" lon="6.017761000">
        <ele>0.000000</ele>
        <time>2016-08-27T19:08:12Z</time>
      </trkpt>
      <trkpt lat="49.952002000" lon="6.017203000">
        <ele>0.000000</ele>
        <time>2016-08-27T19:09:32Z</time>
      </trkpt>
      <trkpt lat="49.950972000" lon="6.020851000">
        <ele>0.000000</ele>
        <time>2016-08-27T19:10:52Z</time>
      </trkpt>
      <trkpt lat="49.953117000" lon="6.026173000">
        <ele>0.000000</ele>
        <time>2016-08-27T19:12:52Z</time>
      </trkpt>
      <trkpt lat="49.953289000" lon="6.031151000">
        <ele>0.000000</ele>
        <time>2016-08-27T19:14:12Z</time>
      </trkpt>
      <trkpt lat="49.955735000" lon="6.032138000">
        <ele>0.000000</ele>
        <time>2016-08-27T19:16:12Z</time>
      </trkpt>
      <trkpt lat="49.960456000" lon="6.029606000">
        <ele>0.000000</ele>
        <time>2016-08-27T19:20:52Z</time>
      </trkpt>
      <trkpt lat="49.964018000" lon="6.031666000">
        <ele>0.000000</ele>
        <time>2016-08-27T19:23:32Z</time>
      </trkpt>
      <trkpt lat="49.962988000" lon="6.042180000">
        <ele>0.000000</ele>
        <time>2016-08-27T19:26:52Z</time>
      </trkpt>
      <trkpt lat="49.964447000" lon="6.046472000">
        <ele>0.000000</ele>
        <time>2016-08-27T19:27:32Z</time>
      </trkpt>
      <trkpt lat="49.967108000" lon="6.047974000">
        <ele>0.000000</ele>
        <time>2016-08-27T19:30:12Z</time>
      </trkpt>
      <trkpt lat="49.965563000" lon="6.045527000">
        <ele>0.000000</ele>
        <time>2016-08-27T19:32:12Z</time>
      </trkpt>
      <trkpt lat="49.965348000" lon="6.041064000">
        <ele>0.000000</ele>
        <time>2016-08-27T19:33:32Z</time>
      </trkpt>
      <trkpt lat="49.966722000" lon="6.038361000">
        <ele>0.000000</ele>
        <time>2016-08-27T19:34:52Z</time>
      </trkpt>
      <trkpt lat="49.970284000" lon="6.047845000">
        <ele>0.000000</ele>
        <time>2016-08-27T19:37:32Z</time>
      </trkpt>
      <trkpt lat="49.973717000" lon="6.052437000">
        <ele>0.000000</ele>
        <time>2016-08-27T19:40:12Z</time>
      </trkpt>
      <trkpt lat="49.974661000" lon="6.052051000">
        <ele>0.000000</ele>
        <time>2016-08-27T19:40:52Z</time>
      </trkpt>
      <trkpt lat="49.976206000" lon="6.057072000">
        <ele>0.000000</ele>
        <time>2016-08-27T19:42:52Z</time>
      </trkpt>
      <trkpt lat="49.979467000" lon="6.062522000">
        <ele>0.000000</ele>
        <time>2016-08-27T19:44:12Z</time>
      </trkpt>
      <trkpt lat="49.980154000" lon="6.065955000">
        <ele>0.000000</ele>
        <time>2016-08-27T19:46:12Z</time>
      </trkpt>
      <trkpt lat="49.985175000" lon="6.074324000">
        <ele>0.000000</ele>
        <time>2016-08-27T19:47:32Z</time>
      </trkpt>
      <trkpt lat="49.989338000" lon="6.079216000">
        <ele>0.000000</ele>
        <time>2016-08-27T19:50:12Z</time>
      </trkpt>
      <trkpt lat="49.991570000" lon="6.087413000">
        <ele>0.000000</ele>
        <time>2016-08-27T19:52:12Z</time>
      </trkpt>
      <trkpt lat="49.986205000" lon="6.107154000">
        <ele>0.000000</ele>
        <time>2016-08-27T19:57:32Z</time>
      </trkpt>
      <trkpt lat="49.983802000" lon="6.111531000">
        <ele>0.000000</ele>
        <time>2016-08-27T19:58:52Z</time>
      </trkpt>
      <trkpt lat="49.973845000" lon="6.119342000">
        <ele>0.000000</ele>
        <time>2016-08-27T20:02:12Z</time>
      </trkpt>
      <trkpt lat="49.973545000" lon="6.123419000">
        <ele>0.000000</ele>
        <time>2016-08-27T20:03:32Z</time>
      </trkpt>
      <trkpt lat="49.971313000" lon="6.123075000">
        <ele>0.000000</ele>
        <time>2016-08-27T20:05:32Z</time>
      </trkpt>
      <trkpt lat="49.969468000" lon="6.128955000">
        <ele>0.000000</ele>
        <time>2016-08-27T20:06:52Z</time>
      </trkpt>
      <trkpt lat="49.964876000" lon="6.131959000">
        <ele>0.000000</ele>
        <time>2016-08-27T20:11:32Z</time>
      </trkpt>
      <trkpt lat="49.963074000" lon="6.130929000">
        <ele>0.000000</ele>
        <time>2016-08-27T20:12:12Z</time>
      </trkpt>
      <trkpt lat="49.961872000" lon="6.125650000">
        <ele>0.000000</ele>
        <time>2016-08-27T20:14:52Z</time>
      </trkpt>
      <trkpt lat="49.962387000" lon="6.120801000">
        <ele>0.000000</ele>
        <time>2016-08-27T20:16:12Z</time>
      </trkpt>
      <trkpt lat="49.961057000" lon="6.119986000">
        <ele>0.000000</ele>
        <time>2016-08-27T20:17:32Z</time>
      </trkpt>
      <trkpt lat="49.960284000" lon="6.121960000">
        <ele>0.000000</ele>
        <time>2016-08-27T20:19:32Z</time>
      </trkpt>
      <trkpt lat="49.959598000" lon="6.117883000">
        <ele>0.000000</ele>
        <time>2016-08-27T20:20:12Z</time>
      </trkpt>
      <trkpt lat="49.954877000" lon="6.111059000">
        <ele>0.000000</ele>
        <time>2016-08-27T20:22:52Z</time>
      </trkpt>
      <trkpt lat="49.954190000" lon="6.105008000">
        <ele>0.000000</ele>
        <time>2016-08-27T20:24:52Z</time>
      </trkpt>
      <trkpt lat="49.952474000" lon="6.099343000">
        <ele>0.000000</ele>
        <time>2016-08-27T20:26:52Z</time>
      </trkpt>
      <trkpt lat="49.953761000" lon="6.097798000">
        <ele>0.000000</ele>
        <time>2016-08-27T20:30:12Z</time>
      </trkpt>
      <trkpt lat="49.952259000" lon="6.096811000">
        <ele>0.000000</ele>
        <time>2016-08-27T20:32:12Z</time>
      </trkpt>
      <trkpt lat="49.951959000" lon="6.093292000">
        <ele>0.000000</ele>
        <time>2016-08-27T20:34:12Z</time>
      </trkpt>
      <trkpt lat="49.950929000" lon="6.093078000">
        <ele>0.000000</ele>
        <time>2016-08-27T20:36:52Z</time>
      </trkpt>
      <trkpt lat="49.949813000" lon="6.089215000">
        <ele>0.000000</ele>
        <time>2016-08-27T20:38:12Z</time>
      </trkpt>
      <trkpt lat="49.949985000" lon="6.083465000">
        <ele>0.000000</ele>
        <time>2016-08-27T20:39:32Z</time>
      </trkpt>
      <trkpt lat="49.947710000" lon="6.083250000">
        <ele>0.000000</ele>
        <time>2016-08-27T20:42:12Z</time>
      </trkpt>
      <trkpt lat="49.946852000" lon="6.080461000">
        <ele>0.000000</ele>
        <time>2016-08-27T20:44:12Z</time>
      </trkpt>
      <trkpt lat="49.941316000" lon="6.083164000">
        <ele>0.000000</ele>
        <time>2016-08-27T20:47:32Z</time>
      </trkpt>
      <trkpt lat="49.938912000" lon="6.081533000">
        <ele>0.000000</ele>
        <time>2016-08-27T20:48:52Z</time>
      </trkpt>
      <trkpt lat="49.937968000" lon="6.084194000">
        <ele>0.000000</ele>
        <time>2016-08-27T20:52:12Z</time>
      </trkpt>
      <trkpt lat="49.937968000" lon="6.079431000">
        <ele>0.000000</ele>
        <time>2016-08-27T20:54:12Z</time>
      </trkpt>
      <trkpt lat="49.940844000" lon="6.080503000">
        <ele>0.000000</ele>
        <time>2016-08-27T20:56:12Z</time>
      </trkpt>
      <trkpt lat="49.939170000" lon="6.074624000">
        <ele>0.000000</ele>
        <time>2016-08-27T20:58:12Z</time>
      </trkpt>
      <trkpt lat="49.939642000" lon="6.072865000">
        <ele>0.000000</ele>
        <time>2016-08-27T20:58:52Z</time>
      </trkpt>
      <trkpt lat="49.937410000" lon="6.073766000">
        <ele>0.000000</ele>
        <time>2016-08-27T21:01:32Z</time>
      </trkpt>
      <trkpt lat="49.935780000" lon="6.069002000">
        <ele>0.000000</ele>
        <time>2016-08-27T21:03:32Z</time>
      </trkpt>
      <trkpt lat="49.936123000" lon="6.066942000">
        <ele>0.000000</ele>
        <time>2016-08-27T21:05:32Z</time>
      </trkpt>
      <trkpt lat="49.935479000" lon="6.068830000">
        <ele>0.000000</ele>
        <time>2016-08-27T21:06:12Z</time>
      </trkpt>
      <trkpt lat="49.935865000" lon="6.074023000">
        <ele>0.000000</ele>
        <time>2016-08-27T21:06:52Z</time>
      </trkpt>
      <trkpt lat="49.934793000" lon="6.071234000">
        <ele>0.000000</ele>
        <time>2016-08-27T21:08:52Z</time>
      </trkpt>
      <trkpt lat="49.932175000" lon="6.070375000">
        <ele>0.000000</ele>
        <time>2016-08-27T21:10:52Z</time>
      </trkpt>
      <trkpt lat="49.929299000" lon="6.075697000">
        <ele>0.000000</ele>
        <time>2016-08-27T21:11:32Z</time>
      </trkpt>
      <trkpt lat="49.927669000" lon="6.076899000">
        <ele>0.000000</ele>
        <time>2016-08-27T21:12:52Z</time>
      </trkpt>
      <trkpt lat="49.919858000" lon="6.070204000">
        <ele>0.000000</ele>
        <time>2016-08-27T21:18:52Z</time>
      </trkpt>
      <trkpt lat="49.917068000" lon="6.078744000">
        <ele>0.000000</ele>
        <time>2016-08-27T21:21:32Z</time>
      </trkpt>
      <trkpt lat="49.919987000" lon="6.084452000">
        <ele>0.000000</ele>
        <time>2016-08-27T21:24:52Z</time>
      </trkpt>
      <trkpt lat="49.919386000" lon="6.085868000">
        <ele>0.000000</ele>
        <time>2016-08-27T21:26:12Z</time>
      </trkpt>
      <trkpt lat="49.912648000" lon="6.080418000">
        <ele>0.000000</ele>
        <time>2016-08-27T21:30:12Z</time>
      </trkpt>
      <trkpt lat="49.912219000" lon="6.081877000">
        <ele>0.000000</ele>
        <time>2016-08-27T21:31:32Z</time>
      </trkpt>
      <trkpt lat="49.914107000" lon="6.084023000">
        <ele>0.000000</ele>
        <time>2016-08-27T21:32:52Z</time>
      </trkpt>
      <trkpt lat="49.914236000" lon="6.088486000">
        <ele>0.000000</ele>
        <time>2016-08-27T21:35:32Z</time>
      </trkpt>
      <trkpt lat="49.913077000" lon="6.090074000">
        <ele>0.000000</ele>
        <time>2016-08-27T21:36:52Z</time>
      </trkpt>
      <trkpt lat="49.908271000" lon="6.086340000">
        <ele>0.000000</ele>
        <time>2016-08-27T21:39:32Z</time>
      </trkpt>
      <trkpt lat="49.902306000" lon="6.084924000">
        <ele>0.000000</ele>
        <time>2016-08-27T21:41:32Z</time>
      </trkpt>
      <trkpt lat="49.897671000" lon="6.091104000">
        <ele>0.000000</ele>
        <time>2016-08-27T21:45:32Z</time>
      </trkpt>
      <trkpt lat="49.896212000" lon="6.090846000">
        <ele>0.000000</ele>
        <time>2016-08-27T21:46:52Z</time>
      </trkpt>
      <trkpt lat="49.891062000" lon="6.097627000">
        <ele>0.000000</ele>
        <time>2016-08-27T21:49:32Z</time>
      </trkpt>
      <trkpt lat="49.888444000" lon="6.094923000">
        <ele>0.000000</ele>
        <time>2016-08-27T21:53:32Z</time>
      </trkpt>
      <trkpt lat="49.887586000" lon="6.096125000">
        <ele>0.000000</ele>
        <time>2016-08-27T21:54:52Z</time>
      </trkpt>
      <trkpt lat="49.887586000" lon="6.099000000">
        <ele>0.000000</ele>
        <time>2016-08-27T21:55:32Z</time>
      </trkpt>
      <trkpt lat="49.888616000" lon="6.101017000">
        <ele>0.000000</ele>
        <time>2016-08-27T21:56:12Z</time>
      </trkpt>
      <trkpt lat="49.895482000" lon="6.104879000">
        <ele>0.000000</ele>
        <time>2016-08-27T21:59:32Z</time>
      </trkpt>
      <trkpt lat="49.897027000" lon="6.107025000">
        <ele>0.000000</ele>
        <time>2016-08-27T22:00:52Z</time>
      </trkpt>
      <trkpt lat="49.897928000" lon="6.113205000">
        <ele>0.000000</ele>
        <time>2016-08-27T22:02:12Z</time>
      </trkpt>
      <trkpt lat="49.897113000" lon="6.116467000">
        <ele>0.000000</ele>
        <time>2016-08-27T22:03:32Z</time>
      </trkpt>
      <trkpt lat="49.895182000" lon="6.116896000">
        <ele>0.000000</ele>
        <time>2016-08-27T22:04:52Z</time>
      </trkpt>
      <trkpt lat="49.893594000" lon="6.115565000">
        <ele>0.000000</ele>
        <time>2016-08-27T22:06:12Z</time>
      </trkpt>
      <trkpt lat="49.891148000" lon="6.110072000">
        <ele>0.000000</ele>
        <time>2016-08-27T22:08:12Z</time>
      </trkpt>
      <trkpt lat="49.888959000" lon="6.109557000">
        <ele>0.000000</ele>
        <time>2016-08-27T22:10:12Z</time>
      </trkpt>
      <trkpt lat="49.886470000" lon="6.111703000">
        <ele>0.000000</ele>
        <time>2016-08-27T22:11:32Z</time>
      </trkpt>
      <trkpt lat="49.883080000" lon="6.111574000">
        <ele>0.000000</ele>
        <time>2016-08-27T22:14:12Z</time>
      </trkpt>
      <trkpt lat="49.882178000" lon="6.106811000">
        <ele>0.000000</ele>
        <time>2016-08-27T22:17:32Z</time>
      </trkpt>
      <trkpt lat="49.879990000" lon="6.105266000">
        <ele>0.000000</ele>
        <time>2016-08-27T22:20:12Z</time>
      </trkpt>
      <trkpt lat="49.871793000" lon="6.112604000">
        <ele>0.000000</ele>
        <time>2016-08-27T22:24:12Z</time>
      </trkpt>
      <trkpt lat="49.868531000" lon="6.112046000">
        <ele>0.000000</ele>
        <time>2016-08-27T22:25:32Z</time>
      </trkpt>
      <trkpt lat="49.866085000" lon="6.113420000">
        <ele>0.000000</ele>
        <time>2016-08-27T22:28:52Z</time>
      </trkpt>
      <trkpt lat="49.855013000" lon="6.112518000">
        <ele>0.000000</ele>
        <time>2016-08-27T22:32:12Z</time>
      </trkpt>
      <trkpt lat="49.851708000" lon="6.114535000">
        <ele>0.000000</ele>
        <time>2016-08-27T22:34:12Z</time>
      </trkpt>
      <trkpt lat="49.851623000" lon="6.111317000">
        <ele>0.000000</ele>
        <time>2016-08-27T22:36:52Z</time>
      </trkpt>
      <trkpt lat="49.850121000" lon="6.109900000">
        <ele>0.000000</ele>
        <time>2016-08-27T22:38:12Z</time>
      </trkpt>
      <trkpt lat="49.847803000" lon="6.102819000">
        <ele>0.000000</ele>
        <time>2016-08-27T22:40:52Z</time>
      </trkpt>
      <trkpt lat="49.853511000" lon="6.093378000">
        <ele>0.000000</ele>
        <time>2016-08-27T22:44:52Z</time>
      </trkpt>
      <trkpt lat="49.857244000" lon="6.089301000">
        <ele>0.000000</ele>
        <time>2016-08-27T22:46:52Z</time>
      </trkpt>
      <trkpt lat="49.860249000" lon="6.081319000">
        <ele>0.000000</ele>
        <time>2016-08-27T22:48:52Z</time>
      </trkpt>
      <trkpt lat="49.862309000" lon="6.081405000">
        <ele>0.000000</ele>
        <time>2016-08-27T22:50:12Z</time>
      </trkpt>
      <trkpt lat="49.864111000" lon="6.083293000">
        <ele>0.000000</ele>
        <time>2016-08-27T22:50:52Z</time>
      </trkpt>
      <trkpt lat="49.865656000" lon="6.082864000">
        <ele>0.000000</ele>
        <time>2016-08-27T22:52:52Z</time>
      </trkpt>
      <trkpt lat="49.867673000" lon="6.078186000">
        <ele>0.000000</ele>
        <time>2016-08-27T22:54:52Z</time>
      </trkpt>
      <trkpt lat="49.870377000" lon="6.078014000">
        <ele>0.000000</ele>
        <time>2016-08-27T22:57:32Z</time>
      </trkpt>
      <trkpt lat="49.871922000" lon="6.079216000">
        <ele>0.000000</ele>
        <time>2016-08-27T22:58:12Z</time>
      </trkpt>
      <trkpt lat="49.873166000" lon="6.077070000">
        <ele>0.000000</ele>
        <time>2016-08-27T22:59:32Z</time>
      </trkpt>
      <trkpt lat="49.875569000" lon="6.075912000">
        <ele>0.000000</ele>
        <time>2016-08-27T23:01:32Z</time>
      </trkpt>
      <trkpt lat="49.877801000" lon="6.077328000">
        <ele>0.000000</ele>
        <time>2016-08-27T23:03:32Z</time>
      </trkpt>
      <trkpt lat="49.878531000" lon="6.079516000">
        <ele>0.000000</ele>
        <time>2016-08-27T23:05:32Z</time>
      </trkpt>
      <trkpt lat="49.880033000" lon="6.076212000">
        <ele>0.000000</ele>
        <time>2016-08-27T23:07:32Z</time>
      </trkpt>
      <trkpt lat="49.882822000" lon="6.076298000">
        <ele>0.000000</ele>
        <time>2016-08-27T23:10:12Z</time>
      </trkpt>
      <trkpt lat="49.884238000" lon="6.073594000">
        <ele>0.000000</ele>
        <time>2016-08-27T23:12:12Z</time>
      </trkpt>
      <trkpt lat="49.885097000" lon="6.075912000">
        <ele>0.000000</ele>
        <time>2016-08-27T23:13:32Z</time>
      </trkpt>
      <trkpt lat="49.886727000" lon="6.075182000">
        <ele>0.000000</ele>
        <time>2016-08-27T23:14:52Z</time>
      </trkpt>
      <trkpt lat="49.890332000" lon="6.069560000">
        <ele>0.000000</ele>
        <time>2016-08-27T23:16:52Z</time>
      </trkpt>
      <trkpt lat="49.886942000" lon="6.066470000">
        <ele>0.000000</ele>
        <time>2016-08-27T23:21:32Z</time>
      </trkpt>
      <trkpt lat="49.885054000" lon="6.059303000">
        <ele>0.000000</ele>
        <time>2016-08-27T23:23:32Z</time>
      </trkpt>
      <trkpt lat="49.886341000" lon="6.052737000">
        <ele>0.000000</ele>
        <time>2016-08-27T23:25:32Z</time>
      </trkpt>
      <trkpt lat="49.890203000" lon="6.049733000">
        <ele>0.000000</ele>
        <time>2016-08-27T23:28:52Z</time>
      </trkpt>
      <trkpt lat="49.892564000" lon="6.044326000">
        <ele>0.000000</ele>
        <time>2016-08-27T23:30:52Z</time>
      </trkpt>
      <trkpt lat="49.895954000" lon="6.042652000">
        <ele>0.000000</ele>
        <time>2016-08-27T23:32:52Z</time>
      </trkpt>
      <trkpt lat="49.898014000" lon="6.037374000">
        <ele>0.000000</ele>
        <time>2016-08-27T23:34:52Z</time>
      </trkpt>
      <trkpt lat="49.900074000" lon="6.036258000">
        <ele>0.000000</ele>
        <time>2016-08-27T23:38:12Z</time>
      </trkpt>
      <trkpt lat="49.902649000" lon="6.038918000">
        <ele>0.000000</ele>
        <time>2016-08-27T23:39:32Z</time>
      </trkpt>
      <trkpt lat="49.905953000" lon="6.045399000">
        <ele>0.000000</ele>
        <time>2016-08-27T23:40:52Z</time>
      </trkpt>
      <trkpt lat="49.908185000" lon="6.052909000">
        <ele>0.000000</ele>
        <time>2016-08-27T23:41:32Z</time>
      </trkpt>
      <trkpt lat="49.908056000" lon="6.060891000">
        <ele>0.000000</ele>
        <time>2016-08-27T23:44:12Z</time>
      </trkpt>
      <trkpt lat="49.911618000" lon="6.057844000">
        <ele>0.000000</ele>
        <time>2016-08-27T23:45:32Z</time>
      </trkpt>
      <trkpt lat="49.913635000" lon="6.050806000">
        <ele>0.000000</ele>
        <time>2016-08-27T23:48:12Z</time>
      </trkpt>
      <trkpt lat="49.915180000" lon="6.049089000">
        <ele>0.000000</ele>
        <time>2016-08-27T23:49:32Z</time>
      </trkpt>
      <trkpt lat="49.918141000" lon="6.049433000">
        <ele>0.000000</ele>
        <time>2016-08-27T23:52:12Z</time>
      </trkpt>
      <trkpt lat="49.917498000" lon="6.044626000">
        <ele>0.000000</ele>
        <time>2016-08-27T23:54:52Z</time>
      </trkpt>
      <trkpt lat="49.919600000" lon="6.047544000">
        <ele>0.000000</ele>
        <time>2016-08-27T23:57:32Z</time>
      </trkpt>
      <trkpt lat="49.920630000" lon="6.046772000">
        <ele>0.000000</ele>
        <time>2016-08-27T23:58:52Z</time>
      </trkpt>
      <trkpt lat="49.920373000" lon="6.044798000">
        <ele>0.000000</ele>
        <time>2016-08-28T00:01:32Z</time>
      </trkpt>
      <trkpt lat="49.922476000" lon="6.044369000">
        <ele>0.000000</ele>
        <time>2016-08-28T00:04:12Z</time>
      </trkpt>
      <trkpt lat="49.923935000" lon="6.040463000">
        <ele>0.000000</ele>
        <time>2016-08-28T00:08:52Z</time>
      </trkpt>
      <trkpt lat="49.924750000" lon="6.042309000">
        <ele>0.000000</ele>
        <time>2016-08-28T00:10:12Z</time>
      </trkpt>
      <trkpt lat="49.923849000" lon="6.047287000">
        <ele>0.000000</ele>
        <time>2016-08-28T00:12:12Z</time>
      </trkpt>
      <trkpt lat="49.924278000" lon="6.048660000">
        <ele>0.000000</ele>
        <time>2016-08-28T00:13:32Z</time>
      </trkpt>
      <trkpt lat="49.925523000" lon="6.047115000">
        <ele>0.000000</ele>
        <time>2016-08-28T00:14:12Z</time>
      </trkpt>
      <trkpt lat="49.926510000" lon="6.039863000">
        <ele>0.000000</ele>
        <time>2016-08-28T00:16:12Z</time>
      </trkpt>
      <trkpt lat="49.924750000" lon="6.037416000">
        <ele>0.000000</ele>
        <time>2016-08-28T00:17:32Z</time>
      </trkpt>
      <trkpt lat="49.922175000" lon="6.037416000">
        <ele>0.000000</ele>
        <time>2016-08-28T00:20:12Z</time>
      </trkpt>
      <trkpt lat="49.920931000" lon="6.030807000">
        <ele>0.000000</ele>
        <time>2016-08-28T00:22:52Z</time>
      </trkpt>
      <trkpt lat="49.920287000" lon="6.030936000">
        <ele>0.000000</ele>
        <time>2016-08-28T00:23:32Z</time>
      </trkpt>
      <trkpt lat="49.919987000" lon="6.026859000">
        <ele>0.000000</ele>
        <time>2016-08-28T00:26:12Z</time>
      </trkpt>
      <trkpt lat="49.924321000" lon="6.015615000">
        <ele>0.000000</ele>
        <time>2016-08-28T00:28:52Z</time>
      </trkpt>
      <trkpt lat="49.925780000" lon="6.014028000">
        <ele>0.000000</ele>
        <time>2016-08-28T00:29:32Z</time>
      </trkpt>
      <trkpt lat="49.926596000" lon="6.007161000">
        <ele>0.000000</ele>
        <time>2016-08-28T00:32:12Z</time>
      </trkpt>
      <trkpt lat="49.921875000" lon="6.002011000">
        <ele>0.000000</ele>
        <time>2016-08-28T00:34:52Z</time>
      </trkpt>
      <trkpt lat="49.917541000" lon="6.000810000">
        <ele>0.000000</ele>
        <time>2016-08-28T00:36:52Z</time>
      </trkpt>
      <trkpt lat="49.914794000" lon="6.002054000">
        <ele>0.000000</ele>
        <time>2016-08-28T00:39:32Z</time>
      </trkpt>
      <trkpt lat="49.914622000" lon="5.986819000">
        <ele>0.000000</ele>
        <time>2016-08-28T00:42:52Z</time>
      </trkpt>
      <trkpt lat="49.910588000" lon="5.981970000">
        <ele>0.000000</ele>
        <time>2016-08-28T00:46:12Z</time>
      </trkpt>
      <trkpt lat="49.912562000" lon="5.977507000">
        <ele>0.000000</ele>
        <time>2016-08-28T00:49:32Z</time>
      </trkpt>
      <trkpt lat="49.910717000" lon="5.973730000">
        <ele>0.000000</ele>
        <time>2016-08-28T00:52:12Z</time>
      </trkpt>
      <trkpt lat="49.909258000" lon="5.973301000">
        <ele>0.000000</ele>
        <time>2016-08-28T00:54:12Z</time>
      </trkpt>
      <trkpt lat="49.909730000" lon="5.967765000">
        <ele>0.000000</ele>
        <time>2016-08-28T00:55:32Z</time>
      </trkpt>
      <trkpt lat="49.908786000" lon="5.968280000">
        <ele>0.000000</ele>
        <time>2016-08-28T00:56:52Z</time>
      </trkpt>
      <trkpt lat="49.907498000" lon="5.964589000">
        <ele>0.000000</ele>
        <time>2016-08-28T00:58:12Z</time>
      </trkpt>
      <trkpt lat="49.907970000" lon="5.962615000">
        <ele>0.000000</ele>
        <time>2016-08-28T00:58:52Z</time>
      </trkpt>
      <trkpt lat="49.905481000" lon="5.953646000">
        <ele>0.000000</ele>
        <time>2016-08-28T01:02:52Z</time>
      </trkpt>
      <trkpt lat="49.904666000" lon="5.956049000">
        <ele>0.000000</ele>
        <time>2016-08-28T01:04:52Z</time>
      </trkpt>
      <trkpt lat="49.905310000" lon="5.960426000">
        <ele>0.000000</ele>
        <time>2016-08-28T01:07:32Z</time>
      </trkpt>
      <trkpt lat="49.900460000" lon="5.958710000">
        <ele>0.000000</ele>
        <time>2016-08-28T01:10:52Z</time>
      </trkpt>
      <trkpt lat="49.898014000" lon="5.953603000">
        <ele>0.000000</ele>
        <time>2016-08-28T01:14:12Z</time>
      </trkpt>
      <trkpt lat="49.892049000" lon="5.952659000">
        <ele>0.000000</ele>
        <time>2016-08-28T01:18:12Z</time>
      </trkpt>
      <trkpt lat="49.890161000" lon="5.949526000">
        <ele>0.000000</ele>
        <time>2016-08-28T01:20:52Z</time>
      </trkpt>
      <trkpt lat="49.890246000" lon="5.952616000">
        <ele>0.000000</ele>
        <time>2016-08-28T01:23:32Z</time>
      </trkpt>
      <trkpt lat="49.890203000" lon="5.950985000">
        <ele>0.000000</ele>
        <time>2016-08-28T01:25:32Z</time>
      </trkpt>
      <trkpt lat="49.885955000" lon="5.945964000">
        <ele>0.000000</ele>
        <time>2016-08-28T01:28:52Z</time>
      </trkpt>
      <trkpt lat="49.884710000" lon="5.940986000">
        <ele>0.000000</ele>
        <time>2016-08-28T01:31:32Z</time>
      </trkpt>
      <trkpt lat="49.885998000" lon="5.938754000">
        <ele>0.000000</ele>
        <time>2016-08-28T01:34:12Z</time>
      </trkpt>
      <trkpt lat="49.883165000" lon="5.938711000">
        <ele>0.000000</ele>
        <time>2016-08-28T01:36:52Z</time>
      </trkpt>
      <trkpt lat="49.877844000" lon="5.951371000">
        <ele>0.000000</ele>
        <time>2016-08-28T01:40:12Z</time>
      </trkpt>
      <trkpt lat="49.875612000" lon="5.960255000">
        <ele>0.000000</ele>
        <time>2016-08-28T01:42:52Z</time>
      </trkpt>
      <trkpt lat="49.875569000" lon="5.963602000">
        <ele>0.000000</ele>
        <time>2016-08-28T01:43:32Z</time>
      </trkpt>
      <trkpt lat="49.866300000" lon="5.970898000">
        <ele>0.000000</ele>
        <time>2016-08-28T01:48:52Z</time>
      </trkpt>
      <trkpt lat="49.864240000" lon="5.978580000">
        <ele>0.000000</ele>
        <time>2016-08-28T01:50:12Z</time>
      </trkpt>
      <trkpt lat="49.860249000" lon="5.983858000">
        <ele>0.000000</ele>
        <time>2016-08-28T01:52:12Z</time>
      </trkpt>
      <trkpt lat="49.857459000" lon="5.984030000">
        <ele>0.000000</ele>
        <time>2016-08-28T01:54:12Z</time>
      </trkpt>
      <trkpt lat="49.856343000" lon="5.986776000">
        <ele>0.000000</ele>
        <time>2016-08-28T01:55:32Z</time>
      </trkpt>
      <trkpt lat="49.853468000" lon="5.989051000">
        <ele>0.000000</ele>
        <time>2016-08-28T01:57:32Z</time>
      </trkpt>
      <trkpt lat="49.851751000" lon="5.992398000">
        <ele>0.000000</ele>
        <time>2016-08-28T01:58:12Z</time>
      </trkpt>
      <trkpt lat="49.850979000" lon="6.003428000">
        <ele>0.000000</ele>
        <time>2016-08-28T02:01:32Z</time>
      </trkpt>
      <trkpt lat="49.849219000" lon="6.006947000">
        <ele>0.000000</ele>
        <time>2016-08-28T02:02:52Z</time>
      </trkpt>
      <trkpt lat="49.847975000" lon="6.019220000">
        <ele>0.000000</ele>
        <time>2016-08-28T02:04:52Z</time>
      </trkpt>
      <trkpt lat="49.846516000" lon="6.023426000">
        <ele>0.000000</ele>
        <time>2016-08-28T02:06:12Z</time>
      </trkpt>
      <trkpt lat="49.846129000" lon="6.028318000">
        <ele>0.000000</ele>
        <time>2016-08-28T02:07:32Z</time>
      </trkpt>
      <trkpt lat="49.842181000" lon="6.022782000">
        <ele>0.000000</ele>
        <time>2016-08-28T02:09:32Z</time>
      </trkpt>
      <trkpt lat="49.839950000" lon="6.016002000">
        <ele>0.000000</ele>
        <time>2016-08-28T02:10:12Z</time>
      </trkpt>
      <trkpt lat="49.834371000" lon="6.008406000">
        <ele>0.000000</ele>
        <time>2016-08-28T02:11:32Z</time>
      </trkpt>
      <trkpt lat="49.841623000" lon="5.990810000">
        <ele>0.000000</ele>
        <time>2016-08-28T02:18:52Z</time>
      </trkpt>
      <trkpt lat="49.844627000" lon="5.987248000">
        <ele>0.000000</ele>
        <time>2016-08-28T02:21:32Z</time>
      </trkpt>
      <trkpt lat="49.846902000" lon="5.986948000">
        <ele>0.000000</ele>
        <time>2016-08-28T02:23:32Z</time>
      </trkpt>
      <trkpt lat="49.846730000" lon="5.983558000">
        <ele>0.000000</ele>
        <time>2016-08-28T02:25:32Z</time>
      </trkpt>
      <trkpt lat="49.848833000" lon="5.973558000">
        <ele>0.000000</ele>
        <time>2016-08-28T02:28:12Z</time>
      </trkpt>
      <trkpt lat="49.851966000" lon="5.969911000">
        <ele>0.000000</ele>
        <time>2016-08-28T02:30:12Z</time>
      </trkpt>
      <trkpt lat="49.852867000" lon="5.966048000">
        <ele>0.000000</ele>
        <time>2016-08-28T02:32:12Z</time>
      </trkpt>
      <trkpt lat="49.855571000" lon="5.963731000">
        <ele>0.000000</ele>
        <time>2016-08-28T02:35:32Z</time>
      </trkpt>
      <trkpt lat="49.855914000" lon="5.961328000">
        <ele>0.000000</ele>
        <time>2016-08-28T02:36:52Z</time>
      </trkpt>
      <trkpt lat="49.857631000" lon="5.960598000">
        <ele>0.000000</ele>
        <time>2016-08-28T02:38:12Z</time>
      </trkpt>
      <trkpt lat="49.858747000" lon="5.958409000">
        <ele>0.000000</ele>
        <time>2016-08-28T02:39:32Z</time>
      </trkpt>
      <trkpt lat="49.858661000" lon="5.956049000">
        <ele>0.000000</ele>
        <time>2016-08-28T02:40:12Z</time>
      </trkpt>
      <trkpt lat="49.861150000" lon="5.946436000">
        <ele>0.000000</ele>
        <time>2016-08-28T02:42:12Z</time>
      </trkpt>
      <trkpt lat="49.859862000" lon="5.941114000">
        <ele>0.000000</ele>
        <time>2016-08-28T02:43:32Z</time>
      </trkpt>
      <trkpt lat="49.860334000" lon="5.937037000">
        <ele>0.000000</ele>
        <time>2016-08-28T02:44:12Z</time>
      </trkpt>
      <trkpt lat="49.862351000" lon="5.934076000">
        <ele>0.000000</ele>
        <time>2016-08-28T02:45:32Z</time>
      </trkpt>
      <trkpt lat="49.864411000" lon="5.933390000">
        <ele>0.000000</ele>
        <time>2016-08-28T02:46:52Z</time>
      </trkpt>
      <trkpt lat="49.865484000" lon="5.929871000">
        <ele>0.000000</ele>
        <time>2016-08-28T02:49:32Z</time>
      </trkpt>
      <trkpt lat="49.869175000" lon="5.932016000">
        <ele>0.000000</ele>
        <time>2016-08-28T02:50:52Z</time>
      </trkpt>
      <trkpt lat="49.873381000" lon="5.930600000">
        <ele>0.000000</ele>
        <time>2016-08-28T02:54:12Z</time>
      </trkpt>
      <trkpt lat="49.869046000" lon="5.923390000">
        <ele>0.000000</ele>
        <time>2016-08-28T02:58:12Z</time>
      </trkpt>
      <trkpt lat="49.866643000" lon="5.914764000">
        <ele>0.000000</ele>
        <time>2016-08-28T02:59:32Z</time>
      </trkpt>
      <trkpt lat="49.865570000" lon="5.914121000">
        <ele>0.000000</ele>
        <time>2016-08-28T03:00:52Z</time>
      </trkpt>
      <trkpt lat="49.865012000" lon="5.911417000">
        <ele>0.000000</ele>
        <time>2016-08-28T03:02:12Z</time>
      </trkpt>
      <trkpt lat="49.867501000" lon="5.904808000">
        <ele>0.000000</ele>
        <time>2016-08-28T03:04:52Z</time>
      </trkpt>
      <trkpt lat="49.861364000" lon="5.904808000">
        <ele>0.000000</ele>
        <time>2016-08-28T03:07:32Z</time>
      </trkpt>
      <trkpt lat="49.857330000" lon="5.907855000">
        <ele>0.000000</ele>
        <time>2016-08-28T03:08:52Z</time>
      </trkpt>
      <trkpt lat="49.850078000" lon="5.909829000">
        <ele>0.000000</ele>
        <time>2016-08-28T03:10:52Z</time>
      </trkpt>
      <trkpt lat="49.850936000" lon="5.913391000">
        <ele>0.000000</ele>
        <time>2016-08-28T03:13:32Z</time>
      </trkpt>
      <trkpt lat="49.845228000" lon="5.921330000">
        <ele>0.000000</ele>
        <time>2016-08-28T03:18:52Z</time>
      </trkpt>
      <trkpt lat="49.840851000" lon="5.932145000">
        <ele>0.000000</ele>
        <time>2016-08-28T03:22:12Z</time>
      </trkpt>
      <trkpt lat="49.839005000" lon="5.942488000">
        <ele>0.000000</ele>
        <time>2016-08-28T03:23:32Z</time>
      </trkpt>
      <trkpt lat="49.831324000" lon="5.954161000">
        <ele>0.000000</ele>
        <time>2016-08-28T03:26:52Z</time>
      </trkpt>
      <trkpt lat="49.829650000" lon="5.960598000">
        <ele>0.000000</ele>
        <time>2016-08-28T03:28:52Z</time>
      </trkpt>
      <trkpt lat="49.826646000" lon="5.965705000">
        <ele>0.000000</ele>
        <time>2016-08-28T03:30:52Z</time>
      </trkpt>
      <trkpt lat="49.816518000" lon="5.948410000">
        <ele>0.000000</ele>
        <time>2016-08-28T03:34:52Z</time>
      </trkpt>
      <trkpt lat="49.811239000" lon="5.947165000">
        <ele>0.000000</ele>
        <time>2016-08-28T03:36:52Z</time>
      </trkpt>
      <trkpt lat="49.806819000" lon="5.940385000">
        <ele>0.000000</ele>
        <time>2016-08-28T03:38:52Z</time>
      </trkpt>
      <trkpt lat="49.803257000" lon="5.938497000">
        <ele>0.000000</ele>
        <time>2016-08-28T03:40:52Z</time>
      </trkpt>
      <trkpt lat="49.802485000" lon="5.935965000">
        <ele>0.000000</ele>
        <time>2016-08-28T03:41:32Z</time>
      </trkpt>
      <trkpt lat="49.803042000" lon="5.923347000">
        <ele>0.000000</ele>
        <time>2016-08-28T03:46:52Z</time>
      </trkpt>
      <trkpt lat="49.805446000" lon="5.920386000">
        <ele>0.000000</ele>
        <time>2016-08-28T03:47:32Z</time>
      </trkpt>
      <trkpt lat="49.806218000" lon="5.916052000">
        <ele>0.000000</ele>
        <time>2016-08-28T03:49:32Z</time>
      </trkpt>
      <trkpt lat="49.809308000" lon="5.913563000">
        <ele>0.000000</ele>
        <time>2016-08-28T03:51:32Z</time>
      </trkpt>
      <trkpt lat="49.809952000" lon="5.910945000">
        <ele>0.000000</ele>
        <time>2016-08-28T03:52:12Z</time>
      </trkpt>
      <trkpt lat="49.808879000" lon="5.894723000">
        <ele>0.000000</ele>
        <time>2016-08-28T03:54:52Z</time>
      </trkpt>
      <trkpt lat="49.811368000" lon="5.886312000">
        <ele>0.000000</ele>
        <time>2016-08-28T03:56:52Z</time>
      </trkpt>
      <trkpt lat="49.811754000" lon="5.880647000">
        <ele>0.000000</ele>
        <time>2016-08-28T03:58:52Z</time>
      </trkpt>
      <trkpt lat="49.813085000" lon="5.879488000">
        <ele>0.000000</ele>
        <time>2016-08-28T03:59:32Z</time>
      </trkpt>
      <trkpt lat="49.812999000" lon="5.875154000">
        <ele>0.000000</ele>
        <time>2016-08-28T04:00:52Z</time>
      </trkpt>
      <trkpt lat="49.814029000" lon="5.874724000">
        <ele>0.000000</ele>
        <time>2016-08-28T04:02:12Z</time>
      </trkpt>
      <trkpt lat="49.810767000" lon="5.869918000">
        <ele>0.000000</ele>
        <time>2016-08-28T04:05:32Z</time>
      </trkpt>
      <trkpt lat="49.810081000" lon="5.865798000">
        <ele>0.000000</ele>
        <time>2016-08-28T04:06:52Z</time>
      </trkpt>
      <trkpt lat="49.807849000" lon="5.866828000">
        <ele>0.000000</ele>
        <time>2016-08-28T04:09:32Z</time>
      </trkpt>
      <trkpt lat="49.800253000" lon="5.861464000">
        <ele>0.000000</ele>
        <time>2016-08-28T04:12:12Z</time>
      </trkpt>
      <trkpt lat="49.790468000" lon="5.858760000">
        <ele>0.000000</ele>
        <time>2016-08-28T04:18:12Z</time>
      </trkpt>
      <trkpt lat="49.786906000" lon="5.854897000">
        <ele>0.000000</ele>
        <time>2016-08-28T04:20:52Z</time>
      </trkpt>
      <trkpt lat="49.782915000" lon="5.856743000">
        <ele>0.000000</ele>
        <time>2016-08-28T04:24:52Z</time>
      </trkpt>
      <trkpt lat="49.782014000" lon="5.852022000">
        <ele>0.000000</ele>
        <time>2016-08-28T04:27:32Z</time>
      </trkpt>
      <trkpt lat="49.780512000" lon="5.854812000">
        <ele>0.000000</ele>
        <time>2016-08-28T04:28:52Z</time>
      </trkpt>
      <trkpt lat="49.776392000" lon="5.855584000">
        <ele>0.000000</ele>
        <time>2016-08-28T04:32:12Z</time>
      </trkpt>
      <trkpt lat="49.773302000" lon="5.853052000">
        <ele>0.000000</ele>
        <time>2016-08-28T04:33:32Z</time>
      </trkpt>
      <trkpt lat="49.763088000" lon="5.856271000">
        <ele>0.000000</ele>
        <time>2016-08-28T04:37:32Z</time>
      </trkpt>
      <trkpt lat="49.763131000" lon="5.852194000">
        <ele>0.000000</ele>
        <time>2016-08-28T04:38:52Z</time>
      </trkpt>
      <trkpt lat="49.758883000" lon="5.831509000">
        <ele>0.000000</ele>
        <time>2016-08-28T04:44:12Z</time>
      </trkpt>
      <trkpt lat="49.759140000" lon="5.829535000">
        <ele>0.000000</ele>
        <time>2016-08-28T04:44:52Z</time>
      </trkpt>
      <trkpt lat="49.757638000" lon="5.826058000">
        <ele>0.000000</ele>
        <time>2016-08-28T04:46:12Z</time>
      </trkpt>
      <trkpt lat="49.759998000" lon="5.823355000">
        <ele>0.000000</ele>
        <time>2016-08-28T04:48:12Z</time>
      </trkpt>
      <trkpt lat="49.762058000" lon="5.823140000">
        <ele>0.000000</ele>
        <time>2016-08-28T04:48:52Z</time>
      </trkpt>
      <trkpt lat="49.768152000" lon="5.818591000">
        <ele>0.000000</ele>
        <time>2016-08-28T04:51:32Z</time>
      </trkpt>
      <trkpt lat="49.770255000" lon="5.819278000">
        <ele>0.000000</ele>
        <time>2016-08-28T04:53:32Z</time>
      </trkpt>
      <trkpt lat="49.776864000" lon="5.813484000">
        <ele>0.000000</ele>
        <time>2016-08-28T04:58:12Z</time>
      </trkpt>
      <trkpt lat="49.777679000" lon="5.810909000">
        <ele>0.000000</ele>
        <time>2016-08-28T04:59:32Z</time>
      </trkpt>
      <trkpt lat="49.781971000" lon="5.809493000">
        <ele>0.000000</ele>
        <time>2016-08-28T05:00:52Z</time>
      </trkpt>
      <trkpt lat="49.783301000" lon="5.806489000">
        <ele>0.000000</ele>
        <time>2016-08-28T05:02:52Z</time>
      </trkpt>
      <trkpt lat="49.783344000" lon="5.808206000">
        <ele>0.000000</ele>
        <time>2016-08-28T05:04:52Z</time>
      </trkpt>
      <trkpt lat="49.785790000" lon="5.809278000">
        <ele>0.000000</ele>
        <time>2016-08-28T05:06:12Z</time>
      </trkpt>
      <trkpt lat="49.787679000" lon="5.808420000">
        <ele>0.000000</ele>
        <time>2016-08-28T05:08:52Z</time>
      </trkpt>
      <trkpt lat="49.787893000" lon="5.805159000">
        <ele>0.000000</ele>
        <time>2016-08-28T05:09:32Z</time>
      </trkpt>
      <trkpt lat="49.790211000" lon="5.802069000">
        <ele>0.000000</ele>
        <time>2016-08-28T05:11:32Z</time>
      </trkpt>
      <trkpt lat="49.790468000" lon="5.804858000">
        <ele>0.000000</ele>
        <time>2016-08-28T05:12:52Z</time>
      </trkpt>
      <trkpt lat="49.792056000" lon="5.806274000">
        <ele>0.000000</ele>
        <time>2016-08-28T05:14:12Z</time>
      </trkpt>
      <trkpt lat="49.793215000" lon="5.803185000">
        <ele>0.000000</ele>
        <time>2016-08-28T05:16:12Z</time>
      </trkpt>
      <trkpt lat="49.796391000" lon="5.802627000">
        <ele>0.000000</ele>
        <time>2016-08-28T05:18:52Z</time>
      </trkpt>
      <trkpt lat="49.798021000" lon="5.800738000">
        <ele>0.000000</ele>
        <time>2016-08-28T05:20:12Z</time>
      </trkpt>
      <trkpt lat="49.801712000" lon="5.800138000">
        <ele>0.000000</ele>
        <time>2016-08-28T05:22:12Z</time>
      </trkpt>
      <trkpt lat="49.804802000" lon="5.795975000">
        <ele>0.000000</ele>
        <time>2016-08-28T05:22:52Z</time>
      </trkpt>
      <trkpt lat="49.806690000" lon="5.790739000">
        <ele>0.000000</ele>
        <time>2016-08-28T05:25:32Z</time>
      </trkpt>
      <trkpt lat="49.809222000" lon="5.794473000">
        <ele>0.000000</ele>
        <time>2016-08-28T05:26:52Z</time>
      </trkpt>
      <trkpt lat="49.815402000" lon="5.798292000">
        <ele>0.000000</ele>
        <time>2016-08-28T05:30:52Z</time>
      </trkpt>
      <trkpt lat="49.819522000" lon="5.798249000">
        <ele>0.000000</ele>
        <time>2016-08-28T05:32:12Z</time>
      </trkpt>
      <trkpt lat="49.822655000" lon="5.796490000">
        <ele>0.000000</ele>
        <time>2016-08-28T05:34:12Z</time>
      </trkpt>
      <trkpt lat="49.827247000" lon="5.790567000">
        <ele>0.000000</ele>
        <time>2016-08-28T05:36:52Z</time>
      </trkpt>
      <trkpt lat="49.834070000" lon="5.789108000">
        <ele>0.000000</ele>
        <time>2016-08-28T05:39:32Z</time>
      </trkpt>
      <trkpt lat="49.837675000" lon="5.783744000">
        <ele>0.000000</ele>
        <time>2016-08-28T05:43:32Z</time>
      </trkpt>
      <trkpt lat="49.841237000" lon="5.784817000">
        <ele>0.000000</ele>
        <time>2016-08-28T05:46:52Z</time>
      </trkpt>
      <trkpt lat="49.847031000" lon="5.792885000">
        <ele>0.000000</ele>
        <time>2016-08-28T05:50:52Z</time>
      </trkpt>
      <trkpt lat="49.851193000" lon="5.793357000">
        <ele>0.000000</ele>
        <time>2016-08-28T05:54:12Z</time>
      </trkpt>
      <trkpt lat="49.858618000" lon="5.784645000">
        <ele>0.000000</ele>
        <time>2016-08-28T05:58:52Z</time>
      </trkpt>
      <trkpt lat="49.861965000" lon="5.787950000">
        <ele>0.000000</ele>
        <time>2016-08-28T06:00:12Z</time>
      </trkpt>
      <trkpt lat="49.866128000" lon="5.798979000">
        <ele>0.000000</ele>
        <time>2016-08-28T06:02:12Z</time>
      </trkpt>
      <trkpt lat="49.869776000" lon="5.804429000">
        <ele>0.000000</ele>
        <time>2016-08-28T06:07:32Z</time>
      </trkpt>
      <trkpt lat="49.869561000" lon="5.801382000">
        <ele>0.000000</ele>
        <time>2016-08-28T06:09:32Z</time>
      </trkpt>
      <trkpt lat="49.873209000" lon="5.800867000">
        <ele>0.000000</ele>
        <time>2016-08-28T06:14:52Z</time>
      </trkpt>
      <trkpt lat="49.872994000" lon="5.799279000">
        <ele>0.000000</ele>
        <time>2016-08-28T06:16:52Z</time>
      </trkpt>
      <trkpt lat="49.875441000" lon="5.797391000">
        <ele>0.000000</ele>
        <time>2016-08-28T06:19:32Z</time>
      </trkpt>
      <trkpt lat="49.874368000" lon="5.802283000">
        <ele>0.000000</ele>
        <time>2016-08-28T06:21:32Z</time>
      </trkpt>
      <trkpt lat="49.876127000" lon="5.810008000">
        <ele>0.000000</ele>
        <time>2016-08-28T06:23:32Z</time>
      </trkpt>
      <trkpt lat="49.882650000" lon="5.809021000">
        <ele>0.000000</ele>
        <time>2016-08-28T06:25:32Z</time>
      </trkpt>
      <trkpt lat="49.886127000" lon="5.813570000">
        <ele>0.000000</ele>
        <time>2016-08-28T06:28:52Z</time>
      </trkpt>
      <trkpt lat="49.886341000" lon="5.816231000">
        <ele>0.000000</ele>
        <time>2016-08-28T06:29:32Z</time>
      </trkpt>
      <trkpt lat="49.878187000" lon="5.822797000">
        <ele>0.000000</ele>
        <time>2016-08-28T06:34:52Z</time>
      </trkpt>
      <trkpt lat="49.875484000" lon="5.820394000">
        <ele>0.000000</ele>
        <time>2016-08-28T06:36:52Z</time>
      </trkpt>
      <trkpt lat="49.872136000" lon="5.821981000">
        <ele>0.000000</ele>
        <time>2016-08-28T06:38:52Z</time>
      </trkpt>
      <trkpt lat="49.871106000" lon="5.828462000">
        <ele>0.000000</ele>
        <time>2016-08-28T06:40:52Z</time>
      </trkpt>
      <trkpt lat="49.872136000" lon="5.833783000">
        <ele>0.000000</ele>
        <time>2016-08-28T06:42:12Z</time>
      </trkpt>
      <trkpt lat="49.871321000" lon="5.834813000">
        <ele>0.000000</ele>
        <time>2016-08-28T06:43:32Z</time>
      </trkpt>
      <trkpt lat="49.869990000" lon="5.832324000">
        <ele>0.000000</ele>
        <time>2016-08-28T06:46:12Z</time>
      </trkpt>
      <trkpt lat="49.865999000" lon="5.832624000">
        <ele>0.000000</ele>
        <time>2016-08-28T06:49:32Z</time>
      </trkpt>
      <trkpt lat="49.865999000" lon="5.827689000">
        <ele>0.000000</ele>
        <time>2016-08-28T06:51:32Z</time>
      </trkpt>
      <trkpt lat="49.863639000" lon="5.834041000">
        <ele>0.000000</ele>
        <time>2016-08-28T06:54:12Z</time>
      </trkpt>
      <trkpt lat="49.866772000" lon="5.838633000">
        <ele>0.000000</ele>
        <time>2016-08-28T06:56:52Z</time>
      </trkpt>
      <trkpt lat="49.864068000" lon="5.841250000">
        <ele>0.000000</ele>
        <time>2016-08-28T07:00:12Z</time>
      </trkpt>
      <trkpt lat="49.862051000" lon="5.846057000">
        <ele>0.000000</ele>
        <time>2016-08-28T07:03:32Z</time>
      </trkpt>
      <trkpt lat="49.861579000" lon="5.842366000">
        <ele>0.000000</ele>
        <time>2016-08-28T07:06:12Z</time>
      </trkpt>
      <trkpt lat="49.860592000" lon="5.842237000">
        <ele>0.000000</ele>
        <time>2016-08-28T07:07:32Z</time>
      </trkpt>
      <trkpt lat="49.858704000" lon="5.847130000">
        <ele>0.000000</ele>
        <time>2016-08-28T07:10:52Z</time>
      </trkpt>
      <trkpt lat="49.860377000" lon="5.853825000">
        <ele>0.000000</ele>
        <time>2016-08-28T07:13:32Z</time>
      </trkpt>
      <trkpt lat="49.863210000" lon="5.856872000">
        <ele>0.000000</ele>
        <time>2016-08-28T07:16:12Z</time>
      </trkpt>
      <trkpt lat="49.862566000" lon="5.859489000">
        <ele>0.000000</ele>
        <time>2016-08-28T07:16:52Z</time>
      </trkpt>
      <trkpt lat="49.864969000" lon="5.865927000">
        <ele>0.000000</ele>
        <time>2016-08-28T07:20:12Z</time>
      </trkpt>
      <trkpt lat="49.863210000" lon="5.866871000">
        <ele>0.000000</ele>
        <time>2016-08-28T07:22:52Z</time>
      </trkpt>
      <trkpt lat="49.862266000" lon="5.876870000">
        <ele>0.000000</ele>
        <time>2016-08-28T07:26:12Z</time>
      </trkpt>
      <trkpt lat="49.865870000" lon="5.876527000">
        <ele>0.000000</ele>
        <time>2016-08-28T07:30:52Z</time>
      </trkpt>
      <trkpt lat="49.867716000" lon="5.878158000">
        <ele>0.000000</ele>
        <time>2016-08-28T07:31:32Z</time>
      </trkpt>
      <trkpt lat="49.872651000" lon="5.879145000">
        <ele>0.000000</ele>
        <time>2016-08-28T07:35:32Z</time>
      </trkpt>
      <trkpt lat="49.876642000" lon="5.885925000">
        <ele>0.000000</ele>
        <time>2016-08-28T07:36:52Z</time>
      </trkpt>
      <trkpt lat="49.877028000" lon="5.883651000">
        <ele>0.000000</ele>
        <time>2016-08-28T07:38:52Z</time>
      </trkpt>
      <trkpt lat="49.879131000" lon="5.884295000">
        <ele>0.000000</ele>
        <time>2016-08-28T07:40:52Z</time>
      </trkpt>
      <trkpt lat="49.883895000" lon="5.890431000">
        <ele>0.000000</ele>
        <time>2016-08-28T07:42:52Z</time>
      </trkpt>
      <trkpt lat="49.894195000" lon="5.894852000">
        <ele>0.000000</ele>
        <time>2016-08-28T07:46:52Z</time>
      </trkpt>
      <trkpt lat="49.895740000" lon="5.896783000">
        <ele>0.000000</ele>
        <time>2016-08-28T07:48:52Z</time>
      </trkpt>
      <trkpt lat="49.901233000" lon="5.893736000">
        <ele>0.000000</ele>
        <time>2016-08-28T07:53:32Z</time>
      </trkpt>
      <trkpt lat="49.904323000" lon="5.894809000">
        <ele>0.000000</ele>
        <time>2016-08-28T07:55:32Z</time>
      </trkpt>
      <trkpt lat="49.906940000" lon="5.890217000">
        <ele>0.000000</ele>
        <time>2016-08-28T07:57:32Z</time>
      </trkpt>
      <trkpt lat="49.897928000" lon="5.886440000">
        <ele>0.000000</ele>
        <time>2016-08-28T08:00:52Z</time>
      </trkpt>
      <trkpt lat="49.897285000" lon="5.882320000">
        <ele>0.000000</ele>
        <time>2016-08-28T08:03:32Z</time>
      </trkpt>
      <trkpt lat="49.899259000" lon="5.879188000">
        <ele>0.000000</ele>
        <time>2016-08-28T08:05:32Z</time>
      </trkpt>
      <trkpt lat="49.897542000" lon="5.873051000">
        <ele>0.000000</ele>
        <time>2016-08-28T08:06:52Z</time>
      </trkpt>
      <trkpt lat="49.893508000" lon="5.872450000">
        <ele>0.000000</ele>
        <time>2016-08-28T08:08:52Z</time>
      </trkpt>
      <trkpt lat="49.876599000" lon="5.853739000">
        <ele>0.000000</ele>
        <time>2016-08-28T08:14:12Z</time>
      </trkpt>
      <trkpt lat="49.866343000" lon="5.846572000">
        <ele>0.000000</ele>
        <time>2016-08-28T08:16:12Z</time>
      </trkpt>
      <trkpt lat="49.863510000" lon="5.842409000">
        <ele>0.000000</ele>
        <time>2016-08-28T08:18:52Z</time>
      </trkpt>
      <trkpt lat="49.866772000" lon="5.838633000">
        <ele>0.000000</ele>
        <time>2016-08-28T08:22:52Z</time>
      </trkpt>
      <trkpt lat="49.863596000" lon="5.833611000">
        <ele>0.000000</ele>
        <time>2016-08-28T08:26:12Z</time>
      </trkpt>
      <trkpt lat="49.865999000" lon="5.827689000">
        <ele>0.000000</ele>
        <time>2016-08-28T08:28:52Z</time>
      </trkpt>
      <trkpt lat="49.866128000" lon="5.832968000">
        <ele>0.000000</ele>
        <time>2016-08-28T08:31:32Z</time>
      </trkpt>
      <trkpt lat="49.869990000" lon="5.832324000">
        <ele>0.000000</ele>
        <time>2016-08-28T08:34:52Z</time>
      </trkpt>
      <trkpt lat="49.871321000" lon="5.834813000">
        <ele>0.000000</ele>
        <time>2016-08-28T08:37:32Z</time>
      </trkpt>
      <trkpt lat="49.872136000" lon="5.833783000">
        <ele>0.000000</ele>
        <time>2016-08-28T08:38:52Z</time>
      </trkpt>
      <trkpt lat="49.871106000" lon="5.828462000">
        <ele>0.000000</ele>
        <time>2016-08-28T08:40:12Z</time>
      </trkpt>
      <trkpt lat="49.872136000" lon="5.821981000">
        <ele>0.000000</ele>
        <time>2016-08-28T08:42:12Z</time>
      </trkpt>
      <trkpt lat="49.875484000" lon="5.820394000">
        <ele>0.000000</ele>
        <time>2016-08-28T08:44:12Z</time>
      </trkpt>
      <trkpt lat="49.878402000" lon="5.822840000">
        <ele>0.000000</ele>
        <time>2016-08-28T08:46:12Z</time>
      </trkpt>
      <trkpt lat="49.886513000" lon="5.816059000">
        <ele>0.000000</ele>
        <time>2016-08-28T08:50:52Z</time>
      </trkpt>
      <trkpt lat="49.894280000" lon="5.811939000">
        <ele>0.000000</ele>
        <time>2016-08-28T08:52:52Z</time>
      </trkpt>
      <trkpt lat="49.904838000" lon="5.810180000">
        <ele>0.000000</ele>
        <time>2016-08-28T08:56:12Z</time>
      </trkpt>
      <trkpt lat="49.909043000" lon="5.807991000">
        <ele>0.000000</ele>
        <time>2016-08-28T08:57:32Z</time>
      </trkpt>
      <trkpt lat="49.916039000" lon="5.797777000">
        <ele>0.000000</ele>
        <time>2016-08-28T08:58:52Z</time>
      </trkpt>
      <trkpt lat="49.920030000" lon="5.799580000">
        <ele>0.000000</ele>
        <time>2016-08-28T09:00:52Z</time>
      </trkpt>
      <trkpt lat="49.923291000" lon="5.803013000">
        <ele>0.000000</ele>
        <time>2016-08-28T09:02:12Z</time>
      </trkpt>
      <trkpt lat="49.925952000" lon="5.802197000">
        <ele>0.000000</ele>
        <time>2016-08-28T09:03:32Z</time>
      </trkpt>
      <trkpt lat="49.925051000" lon="5.804472000">
        <ele>0.000000</ele>
        <time>2016-08-28T09:04:12Z</time>
      </trkpt>
      <trkpt lat="49.925222000" lon="5.809150000">
        <ele>0.000000</ele>
        <time>2016-08-28T09:05:32Z</time>
      </trkpt>
      <trkpt lat="49.927626000" lon="5.813828000">
        <ele>0.000000</ele>
        <time>2016-08-28T09:06:52Z</time>
      </trkpt>
      <trkpt lat="49.929729000" lon="5.822539000">
        <ele>0.000000</ele>
        <time>2016-08-28T09:11:32Z</time>
      </trkpt>
      <trkpt lat="49.928956000" lon="5.833740000">
        <ele>0.000000</ele>
        <time>2016-08-28T09:14:12Z</time>
      </trkpt>
      <trkpt lat="49.919772000" lon="5.848160000">
        <ele>0.000000</ele>
        <time>2016-08-28T09:19:32Z</time>
      </trkpt>
      <trkpt lat="49.923291000" lon="5.846872000">
        <ele>0.000000</ele>
        <time>2016-08-28T09:22:12Z</time>
      </trkpt>
      <trkpt lat="49.926167000" lon="5.853567000">
        <ele>0.000000</ele>
        <time>2016-08-28T09:24:12Z</time>
      </trkpt>
      <trkpt lat="49.930758000" lon="5.855584000">
        <ele>0.000000</ele>
        <time>2016-08-28T09:27:32Z</time>
      </trkpt>
      <trkpt lat="49.932218000" lon="5.858417000">
        <ele>0.000000</ele>
        <time>2016-08-28T09:29:32Z</time>
      </trkpt>
      <trkpt lat="49.935908000" lon="5.858202000">
        <ele>0.000000</ele>
        <time>2016-08-28T09:32:52Z</time>
      </trkpt>
      <trkpt lat="49.937110000" lon="5.859404000">
        <ele>0.000000</ele>
        <time>2016-08-28T09:33:32Z</time>
      </trkpt>
      <trkpt lat="49.940500000" lon="5.871849000">
        <ele>0.000000</ele>
        <time>2016-08-28T09:39:32Z</time>
      </trkpt>
      <trkpt lat="49.942217000" lon="5.871334000">
        <ele>0.000000</ele>
        <time>2016-08-28T09:40:52Z</time>
      </trkpt>
      <trkpt lat="49.945650000" lon="5.879445000">
        <ele>0.000000</ele>
        <time>2016-08-28T09:42:52Z</time>
      </trkpt>
      <trkpt lat="49.941101000" lon="5.884080000">
        <ele>0.000000</ele>
        <time>2016-08-28T09:44:52Z</time>
      </trkpt>
      <trkpt lat="49.936509000" lon="5.886741000">
        <ele>0.000000</ele>
        <time>2016-08-28T09:46:52Z</time>
      </trkpt>
      <trkpt lat="49.935608000" lon="5.883951000">
        <ele>0.000000</ele>
        <time>2016-08-28T09:48:12Z</time>
      </trkpt>
      <trkpt lat="49.932861000" lon="5.884595000">
        <ele>0.000000</ele>
        <time>2016-08-28T09:50:12Z</time>
      </trkpt>
      <trkpt lat="49.930501000" lon="5.879574000">
        <ele>0.000000</ele>
        <time>2016-08-28T09:51:32Z</time>
      </trkpt>
      <trkpt lat="49.924622000" lon="5.873866000">
        <ele>0.000000</ele>
        <time>2016-08-28T09:53:32Z</time>
      </trkpt>
      <trkpt lat="49.922261000" lon="5.873308000">
        <ele>0.000000</ele>
        <time>2016-08-28T09:54:52Z</time>
      </trkpt>
      <trkpt lat="49.922605000" lon="5.877471000">
        <ele>0.000000</ele>
        <time>2016-08-28T09:56:52Z</time>
      </trkpt>
      <trkpt lat="49.916983000" lon="5.872364000">
        <ele>0.000000</ele>
        <time>2016-08-28T10:00:12Z</time>
      </trkpt>
      <trkpt lat="49.915446000" lon="5.873539000">
        <ele>0.000000</ele>
        <time>2016-08-28T10:01:32Z</time>
      </trkpt>
      <trkpt lat="49.917111000" lon="5.872364000">
        <ele>0.000000</ele>
        <time>2016-08-28T10:02:52Z</time>
      </trkpt>
      <trkpt lat="49.922347000" lon="5.877213000">
        <ele>0.000000</ele>
        <time>2016-08-28T10:05:32Z</time>
      </trkpt>
      <trkpt lat="49.923162000" lon="5.896440000">
        <ele>0.000000</ele>
        <time>2016-08-28T10:10:12Z</time>
      </trkpt>
      <trkpt lat="49.925437000" lon="5.899358000">
        <ele>0.000000</ele>
        <time>2016-08-28T10:11:32Z</time>
      </trkpt>
      <trkpt lat="49.921317000" lon="5.901418000">
        <ele>0.000000</ele>
        <time>2016-08-28T10:14:52Z</time>
      </trkpt>
      <trkpt lat="49.918356000" lon="5.907340000">
        <ele>0.000000</ele>
        <time>2016-08-28T10:18:52Z</time>
      </trkpt>
      <trkpt lat="49.920502000" lon="5.921202000">
        <ele>0.000000</ele>
        <time>2016-08-28T10:22:12Z</time>
      </trkpt>
      <trkpt lat="49.918742000" lon="5.922918000">
        <ele>0.000000</ele>
        <time>2016-08-28T10:24:52Z</time>
      </trkpt>
      <trkpt lat="49.916897000" lon="5.921545000">
        <ele>0.000000</ele>
        <time>2016-08-28T10:26:12Z</time>
      </trkpt>
      <trkpt lat="49.915180000" lon="5.922103000">
        <ele>0.000000</ele>
        <time>2016-08-28T10:28:12Z</time>
      </trkpt>
      <trkpt lat="49.912004000" lon="5.926051000">
        <ele>0.000000</ele>
        <time>2016-08-28T10:30:12Z</time>
      </trkpt>
      <trkpt lat="49.910588000" lon="5.929785000">
        <ele>0.000000</ele>
        <time>2016-08-28T10:32:12Z</time>
      </trkpt>
      <trkpt lat="49.909987000" lon="5.929055000">
        <ele>0.000000</ele>
        <time>2016-08-28T10:34:12Z</time>
      </trkpt>
      <trkpt lat="49.909430000" lon="5.931673000">
        <ele>0.000000</ele>
        <time>2016-08-28T10:35:32Z</time>
      </trkpt>
      <trkpt lat="49.910417000" lon="5.932317000">
        <ele>0.000000</ele>
        <time>2016-08-28T10:36:52Z</time>
      </trkpt>
      <trkpt lat="49.911704000" lon="5.931072000">
        <ele>0.000000</ele>
        <time>2016-08-28T10:38:52Z</time>
      </trkpt>
      <trkpt lat="49.911532000" lon="5.933647000">
        <ele>0.000000</ele>
        <time>2016-08-28T10:40:12Z</time>
      </trkpt>
    </trkseg>
  </trk>
</gpx>
